Terminal Aerodrome Forecast
Issued by NWS Omaha/Valley, NE

Home | Current Version | Previous Version | Graphics & Text | Print | Product List | Glossary On
Versions: 1 2 3 4 5 6 7 8 9 10 11 12 13 14 15 16 17 18 19 20 21 22 23 24 25 26 27 28 29 30 31 32
356
FTUS43 KOAX 230520
TAFOFK
TAF
KOFK 230520Z 2306/2406 16012KT P6SM BKN250
     FM231700 17014G22KT P6SM BKN150
     FM240000 14008KT P6SM BKN120=

USA.gov is the U.S. government's official web portal to all federal, state and local government web resources and services.